Terminal Aerodrome Forecast
Issued by NWS

Home | Current Version | Previous Version | Text Only | Print | Product List | Glossary On
Versions: 1 2 3 4 5 6 7 8 9 10 11 12 13 14 15 16 17 18 19 20 21 22
000
FTUS45 KBOU 200530
TAFAPA
TAF
KAPA 200530Z 2006/2106 21014G22KT P6SM SCT220
     FM201000 21010KT P6SM FEW120 SCT200
     FM202000 03010KT P6SM FEW070 SCT120 BKN180
     FM210100 05012G18KT P6SM SCT015 BKN035 OVC050 PROB30 2102/2106
      2SM -SHSN BKN007 BKN015=

USA.gov is the U.S. government's official web portal to all federal, state and local government web resources and services.